createdAt,value
2018-04-28T00:00:10.884Z,13.19
2018-04-28T00:01:11.111Z,13.18
2018-04-28T00:02:11.089Z,13.16
2018-04-28T00:03:10.814Z,13.22
2018-04-28T00:04:11.035Z,13.19
2018-04-28T00:05:11.021Z,13.15
2018-04-28T00:06:10.994Z,13.22
2018-04-28T00:07:10.978Z,13.16
2018-04-28T00:08:10.952Z,13.18
2018-04-28T00:09:10.428Z,13.18
2018-04-28T00:10:10.656Z,13.19
2018-04-28T00:11:10.633Z,13.18
2018-04-28T00:12:10.858Z,13.16
2018-04-28T00:13:10.598Z,13.16
2018-04-28T00:14:10.566Z,13.16
2018-04-28T00:15:10.544Z,13.09
2018-04-28T00:16:10.766Z,13.18
2018-04-28T00:17:10.498Z,13.18
2018-04-28T00:18:10.471Z,13.12
2018-04-28T00:19:10.705Z,13.16
2018-04-28T00:20:10.429Z,13.16
2018-04-28T00:21:10.665Z,13.18
2018-04-28T00:22:10.633Z,13.19
2018-04-28T00:23:10.618Z,13.19
2018-04-28T00:24:10.336Z,13.22
2018-04-28T00:25:10.322Z,13.2
2018-04-28T00:26:10.624Z,13.22
2018-04-28T00:27:10.519Z,13.28
2018-04-28T00:28:10.498Z,13.27
2018-04-28T00:29:10.477Z,13.33
2018-04-28T00:30:10.449Z,13.38
2018-04-28T00:31:10.425Z,13.46
2018-04-28T00:32:10.411Z,13.46
2018-04-28T00:33:10.133Z,13.47
2018-04-28T00:34:10.357Z,13.46
2018-04-28T00:35:10.333Z,13.44
2018-04-28T00:36:10.317Z,13.5
2018-04-28T00:37:09.793Z,13.41
2018-04-28T00:38:10.031Z,13.38
2018-04-28T00:39:10.240Z,13.39
2018-04-28T00:40:10.220Z,13.33
2018-04-28T00:41:09.951Z,13.39
2018-04-28T00:42:09.928Z,13.37
2018-04-28T00:43:10.262Z,13.31
2018-04-28T00:44:09.883Z,13.38
2018-04-28T00:45:09.860Z,13.31
2018-04-28T00:46:09.839Z,13.37
2018-04-28T00:47:10.074Z,13.37
2018-04-28T00:48:09.793Z,13.38
2018-04-28T00:49:09.774Z,13.33
2018-04-28T00:50:09.752Z,13.39
2018-04-28T00:51:09.749Z,13.35
2018-04-28T00:52:09.947Z,13.35
2018-04-28T00:53:09.432Z,13.33
2018-04-28T00:54:09.910Z,13.39
2018-04-28T00:55:09.642Z,13.42
2018-04-28T00:56:09.873Z,13.49
2018-04-28T00:57:09.844Z,13.39
2018-04-28T00:58:09.814Z,13.46
2018-04-28T00:59:09.787Z,13.49
2018-04-28T01:00:09.769Z,13.5
2018-04-28T01:01:09.496Z,13.52
2018-04-28T01:02:09.732Z,13.54
2018-04-28T01:03:09.711Z,13.49
2018-04-28T01:04:09.684Z,13.46
2018-04-28T01:05:09.656Z,13.52
2018-04-28T01:06:09.382Z,13.47
2018-04-28T01:07:09.362Z,13.47
2018-04-28T01:08:09.341Z,13.52
2018-04-28T01:09:09.573Z,13.56
2018-04-28T01:10:09.298Z,13.6
2018-04-28T01:11:09.275Z,13.57
2018-04-28T01:12:09.248Z,13.63
2018-04-28T01:13:09.470Z,13.62
2018-04-28T01:14:09.451Z,13.71
2018-04-28T01:15:09.177Z,13.62
2018-04-28T01:16:09.155Z,13.72
2018-04-28T01:17:09.135Z,13.62
2018-04-28T01:18:09.112Z,13.65
2018-04-28T01:19:09.088Z,13.57
2018-04-28T01:20:09.312Z,13.59
2018-04-28T01:21:09.298Z,13.65
2018-04-28T01:22:09.267Z,13.57
2018-04-28T01:23:09.258Z,13.6
2018-04-28T01:24:09.224Z,13.59
2018-04-28T01:25:08.706Z,13.6
2018-04-28T01:26:09.179Z,13.59
2018-04-28T01:27:09.157Z,13.59
2018-04-28T01:28:09.133Z,13.68
2018-04-28T01:29:08.859Z,13.65
2018-04-28T01:30:09.009Z,13.57
2018-04-28T01:31:09.069Z,13.57
2018-04-28T01:32:09.048Z,13.5
2018-04-28T01:33:09.013Z,13.5
2018-04-28T01:34:09.005Z,13.5
2018-04-28T01:35:08.728Z,13.41
2018-04-28T01:36:08.705Z,13.46
2018-04-28T01:37:08.679Z,13.35
2018-04-28T01:38:08.902Z,13.3
2018-04-28T01:39:08.640Z,13.28
2018-04-28T01:40:08.618Z,13.16
2018-04-28T01:41:08.843Z,13.25
2018-04-28T01:42:08.816Z,13.2
2018-04-28T01:43:08.792Z,13.19
2018-04-28T01:44:08.769Z,13.11
2018-04-28T01:45:08.753Z,13.08
2018-04-28T01:46:08.731Z,13.04
2018-04-28T01:47:08.449Z,13.01
2018-04-28T01:48:08.538Z,13.01
2018-04-28T01:49:08.655Z,13.03
2018-04-28T01:50:08.141Z,13.03
2018-04-28T01:51:08.112Z,13.05
2018-04-28T01:52:08.584Z,13.03
2018-04-28T01:53:08.564Z,13.09
2018-04-28T01:54:08.291Z,13.08
2018-04-28T01:55:08.525Z,13.05
2018-04-28T01:56:08.248Z,12.98
2018-04-28T01:57:08.224Z,12.91
2018-04-28T01:58:08.197Z,12.91
2018-04-28T01:59:08.431Z,12.91
2018-04-28T02:00:08.613Z,12.87
2018-04-28T02:01:07.883Z,12.85
2018-04-28T02:02:08.112Z,12.82
2018-04-28T02:03:08.355Z,12.8
2018-04-28T02:04:08.066Z,12.8
2018-04-28T02:05:08.290Z,12.78
2018-04-28T02:06:07.770Z,12.83
2018-04-28T02:07:07.993Z,12.75
2018-04-28T02:08:07.972Z,12.7
2018-04-28T02:09:07.698Z,12.67
2018-04-28T02:10:07.920Z,12.68
2018-04-28T02:11:07.899Z,12.6
2018-04-28T02:12:07.877Z,12.55
2018-04-28T02:13:08.107Z,12.5
2018-04-28T02:14:08.078Z,12.46
2018-04-28T02:15:07.810Z,12.45
2018-04-28T02:16:07.533Z,12.54
2018-04-28T02:17:07.762Z,12.43
2018-04-28T02:18:07.740Z,12.53
2018-04-28T02:19:07.963Z,12.47
2018-04-28T02:20:07.945Z,12.49
2018-04-28T02:21:07.923Z,12.5
2018-04-28T02:22:07.897Z,12.39
2018-04-28T02:23:07.872Z,12.37
2018-04-28T02:24:07.599Z,12.39
2018-04-28T02:25:07.583Z,12.42
2018-04-28T02:26:07.806Z,12.43
2018-04-28T02:27:07.532Z,12.43
2018-04-28T02:28:07.508Z,12.39
2018-04-28T02:29:07.486Z,12.42
2018-04-28T02:30:07.722Z,12.42
2018-04-28T02:31:07.690Z,12.4
2018-04-28T02:32:07.658Z,12.46
2018-04-28T02:33:07.398Z,12.5
2018-04-28T02:34:07.617Z,12.49
2018-04-28T02:35:07.349Z,12.42
2018-04-28T02:36:07.314Z,12.39
2018-04-28T02:37:07.548Z,12.39
2018-04-28T02:38:07.523Z,12.45
2018-04-28T02:39:07.501Z,12.47
2018-04-28T02:40:07.235Z,12.5
2018-04-28T02:41:07.206Z,12.49
2018-04-28T02:42:07.436Z,12.5
2018-04-28T02:43:07.155Z,12.55
2018-04-28T02:44:07.387Z,12.39
2018-04-28T02:45:07.366Z,12.47
2018-04-28T02:46:07.335Z,12.5
2018-04-28T02:47:07.069Z,12.42
2018-04-28T02:48:07.287Z,12.53
2018-04-28T02:49:06.765Z,12.46
2018-04-28T02:50:07.394Z,12.5
2018-04-28T02:51:06.967Z,12.55
2018-04-28T02:52:06.697Z,12.55
2018-04-28T02:53:07.167Z,12.53
2018-04-28T02:54:07.149Z,12.36
2018-04-28T02:55:06.879Z,12.53
2018-04-28T02:56:06.934Z,12.54
2018-04-28T02:57:06.836Z,12.46
2018-04-28T02:58:07.058Z,12.45
2018-04-28T02:59:06.779Z,12.49
2018-04-28T03:00:06.758Z,12.46
2018-04-28T03:01:06.979Z,12.43
2018-04-28T03:02:06.960Z,12.57
2018-04-28T03:03:06.932Z,12.4
2018-04-28T03:04:06.915Z,12.47
2018-04-28T03:05:06.648Z,12.5
2018-04-28T03:06:06.867Z,12.5
2018-04-28T03:07:06.593Z,12.36
2018-04-28T03:08:06.826Z,12.49
2018-04-28T03:09:06.547Z,12.4
2018-04-28T03:10:06.820Z,12.43
2018-04-28T03:11:06.756Z,12.47
2018-04-28T03:12:06.478Z,12.5
2018-04-28T03:13:06.722Z,12.42
2018-04-28T03:14:06.434Z,12.49
2018-04-28T03:15:06.419Z,12.37
2018-04-28T03:16:06.133Z,12.37
2018-04-28T03:17:06.369Z,12.43
2018-04-28T03:18:06.578Z,12.37
2018-04-28T03:19:06.310Z,12.39
2018-04-28T03:20:06.531Z,12.4
2018-04-28T03:21:06.012Z,12.43
2018-04-28T03:22:06.511Z,12.32
2018-04-28T03:23:06.464Z,12.47
2018-04-28T03:24:06.447Z,12.37
2018-04-28T03:25:06.168Z,12.37
2018-04-28T03:26:06.150Z,12.36
2018-04-28T03:27:06.121Z,12.37
2018-04-28T03:28:06.352Z,12.36
2018-04-28T03:29:06.073Z,12.42
2018-04-28T03:30:06.303Z,12.35
2018-04-28T03:31:06.302Z,12.32
2018-04-28T03:32:06.264Z,12.43
2018-04-28T03:33:05.733Z,12.39
2018-04-28T03:34:06.215Z,12.4
2018-04-28T03:35:05.933Z,12.36
2018-04-28T03:36:06.164Z,12.31
2018-04-28T03:37:05.637Z,12.35
2018-04-28T03:38:05.866Z,12.36
2018-04-28T03:39:06.098Z,12.35
2018-04-28T03:40:06.071Z,12.37
2018-04-28T03:41:05.541Z,12.29
2018-04-28T03:42:06.020Z,12.25
2018-04-28T03:43:05.744Z,12.28
2018-04-28T03:44:05.717Z,12.28
2018-04-28T03:45:05.948Z,12.27
2018-04-28T03:46:05.425Z,12.24
2018-04-28T03:47:05.644Z,12.25
2018-04-28T03:48:05.875Z,12.27
2018-04-28T03:49:05.859Z,12.24
2018-04-28T03:50:05.916Z,12.36
2018-04-28T03:51:05.564Z,12.4
2018-04-28T03:52:05.534Z,12.35
2018-04-28T03:53:05.753Z,12.36
2018-04-28T03:54:05.739Z,12.32
2018-04-28T03:55:05.709Z,12.36
2018-04-28T03:56:05.683Z,12.36
2018-04-28T03:57:05.662Z,12.35
2018-04-28T03:58:05.643Z,12.36
2018-04-28T03:59:05.610Z,12.28
2018-04-28T04:00:05.598Z,12.27
2018-04-28T04:01:05.571Z,12.28
2018-04-28T04:02:05.545Z,12.32
2018-04-28T04:03:05.521Z,12.32
2018-04-28T04:04:05.497Z,12.22
2018-04-28T04:05:05.473Z,12.27
2018-04-28T04:06:05.195Z,12.24
2018-04-28T04:07:05.172Z,12.28
2018-04-28T04:08:05.155Z,12.29
2018-04-28T04:09:04.878Z,12.27
2018-04-28T04:10:05.105Z,12.25
2018-04-28T04:11:05.334Z,12.22
2018-04-28T04:12:05.061Z,12.21
2018-04-28T04:13:05.281Z,12.27
2018-04-28T04:14:05.256Z,12.2
2018-04-28T04:15:04.987Z,12.25
2018-04-28T04:16:05.214Z,12.18
2018-04-28T04:17:05.184Z,12.12
2018-04-28T04:18:04.916Z,12.15
2018-04-28T04:19:04.898Z,12.12
2018-04-28T04:20:04.869Z,12.17
2018-04-28T04:21:04.844Z,12.15
2018-04-28T04:22:04.821Z,12.15
2018-04-28T04:23:04.803Z,12.2
2018-04-28T04:24:05.023Z,12.12
2018-04-28T04:25:04.502Z,12.15
2018-04-28T04:26:04.725Z,12.15
2018-04-28T04:27:04.951Z,12.15
2018-04-28T04:28:04.677Z,12.13
2018-04-28T04:29:04.909Z,12.13
2018-04-28T04:30:04.880Z,12.13
2018-04-28T04:31:04.857Z,12.12
2018-04-28T04:32:04.932Z,12.17
2018-04-28T04:33:04.814Z,12.1
2018-04-28T04:34:04.785Z,12.13
2018-04-28T04:35:04.766Z,12.1
2018-04-28T04:36:04.741Z,12.1
2018-04-28T04:37:04.715Z,12.17
2018-04-28T04:38:04.705Z,12.03
2018-04-28T04:39:04.182Z,12.07
2018-04-28T04:40:04.654Z,12.21
2018-04-28T04:41:04.125Z,12.15
2018-04-28T04:42:04.353Z,12.1
2018-04-28T04:43:04.337Z,12.12
2018-04-28T04:44:04.303Z,12.21
2018-04-28T04:45:04.541Z,12.27
2018-04-28T04:46:04.257Z,12.2
2018-04-28T04:47:04.479Z,12.2
2018-04-28T04:48:03.964Z,12.25
2018-04-28T04:49:04.444Z,12.22
2018-04-28T04:50:04.426Z,12.24
2018-04-28T04:51:04.389Z,12.24
2018-04-28T04:52:03.869Z,12.28
2018-04-28T04:53:04.339Z,12.28
2018-04-28T04:54:04.075Z,12.27
2018-04-28T04:55:04.046Z,12.25
2018-04-28T04:56:04.285Z,12.31
2018-04-28T04:57:04.247Z,12.28
2018-04-28T04:58:03.979Z,12.42
2018-04-28T04:59:03.705Z,12.35
2018-04-28T05:00:03.929Z,12.43
2018-04-28T05:01:03.914Z,12.4
2018-04-28T05:02:04.136Z,12.32
2018-04-28T05:03:04.112Z,12.49
2018-04-28T05:04:03.843Z,12.45
2018-04-28T05:05:04.074Z,12.55
2018-04-28T05:06:04.054Z,12.5
2018-04-28T05:07:04.021Z,12.53
2018-04-28T05:08:03.995Z,12.45
2018-04-28T05:09:03.732Z,12.46
2018-04-28T05:10:03.459Z,12.45
2018-04-28T05:11:03.681Z,12.5
2018-04-28T05:12:03.917Z,12.53
2018-04-28T05:13:03.635Z,12.53
2018-04-28T05:14:03.898Z,12.49
2018-04-28T05:15:03.840Z,12.49
2018-04-28T05:16:03.816Z,12.47
2018-04-28T05:17:03.544Z,12.53
2018-04-28T05:18:03.522Z,12.47
2018-04-28T05:19:03.766Z,12.54
2018-04-28T05:20:03.473Z,12.53
2018-04-28T05:21:03.716Z,12.54
2018-04-28T05:22:03.428Z,12.55
2018-04-28T05:23:03.657Z,12.68
2018-04-28T05:24:03.388Z,12.67
2018-04-28T05:25:03.368Z,12.62
2018-04-28T05:26:03.344Z,12.64
2018-04-28T05:27:03.567Z,12.73
2018-04-28T05:28:03.542Z,12.7
2018-04-28T05:29:03.523Z,12.73
2018-04-28T05:30:03.250Z,12.75
2018-04-28T05:31:03.489Z,12.78
2018-04-28T05:32:03.554Z,12.78
2018-04-28T05:33:03.432Z,12.79
2018-04-28T05:34:03.420Z,12.86
2018-04-28T05:35:03.386Z,12.83
2018-04-28T05:36:03.655Z,12.85
2018-04-28T05:37:03.340Z,12.8
2018-04-28T05:38:03.339Z,12.95
2018-04-28T05:39:03.301Z,12.94
2018-04-28T05:40:03.281Z,13.05
2018-04-28T05:41:03.013Z,13.03
2018-04-28T05:42:03.230Z,13.03
2018-04-28T05:43:02.960Z,13.19
2018-04-28T05:44:03.190Z,13.16
2018-04-28T05:45:03.181Z,13.18
2018-04-28T05:46:02.896Z,13.23
2018-04-28T05:47:03.123Z,13.2
2018-04-28T05:48:03.099Z,13.3
2018-04-28T05:49:03.078Z,13.33
2018-04-28T05:50:03.059Z,13.35
2018-04-28T05:51:03.034Z,13.47
2018-04-28T05:52:03.011Z,13.39
2018-04-28T05:53:02.989Z,13.47
2018-04-28T05:54:02.729Z,13.46
2018-04-28T05:55:02.697Z,13.62
2018-04-28T05:56:02.926Z,13.63
2018-04-28T05:57:02.909Z,13.65
2018-04-28T05:58:02.881Z,13.71
2018-04-28T05:59:02.861Z,13.72
2018-04-28T06:00:02.841Z,13.75
2018-04-28T06:01:02.830Z,13.85
2018-04-28T06:02:02.802Z,13.86
2018-04-28T06:03:02.781Z,13.95
2018-04-28T06:04:02.757Z,14.11
2018-04-28T06:05:02.737Z,14.11
2018-04-28T06:06:02.721Z,14.17
2018-04-28T06:07:02.694Z,14.33
2018-04-28T06:08:02.438Z,14.37
2018-04-28T06:09:02.670Z,14.51
2018-04-28T06:10:02.642Z,14.62
2018-04-28T06:11:02.631Z,14.6
2018-04-28T06:12:02.351Z,14.69
2018-04-28T06:13:02.574Z,14.81
2018-04-28T06:14:02.564Z,14.91
2018-04-28T06:15:02.293Z,14.91
2018-04-28T06:16:02.276Z,14.88
2018-04-28T06:17:02.504Z,14.91
2018-04-28T06:18:02.486Z,14.86
2018-04-28T06:19:02.465Z,14.92
2018-04-28T06:20:02.438Z,14.86
2018-04-28T06:21:02.429Z,14.88
2018-04-28T06:22:02.412Z,14.96
2018-04-28T06:23:02.472Z,14.89
2018-04-28T06:24:02.376Z,14.85
2018-04-28T06:25:02.358Z,14.94
2018-04-28T06:26:02.457Z,14.99
2018-04-28T06:27:02.320Z,15.03
2018-04-28T06:28:02.306Z,14.92
2018-04-28T06:29:02.037Z,15.02
2018-04-28T06:30:02.262Z,15.03
2018-04-28T06:31:02.253Z,14.96
2018-04-28T06:32:02.226Z,14.96
2018-04-28T06:33:02.214Z,14.92
2018-04-28T06:34:02.196Z,14.99
2018-04-28T06:35:02.175Z,14.91
2018-04-28T06:36:02.159Z,14.94
2018-04-28T06:37:02.148Z,14.89
2018-04-28T06:38:02.374Z,15
2018-04-28T06:39:01.865Z,15
2018-04-28T06:40:02.091Z,15.11
2018-04-28T06:41:01.817Z,15.15
2018-04-28T06:42:01.808Z,15.07
2018-04-28T06:43:01.786Z,15.11
2018-04-28T06:44:01.769Z,15.1
2018-04-28T06:45:02.020Z,15.07
2018-04-28T06:46:01.986Z,15.15
2018-04-28T06:47:01.720Z,15.07
2018-04-28T06:48:01.952Z,15.17
2018-04-28T06:49:01.940Z,15.18
2018-04-28T06:50:01.918Z,15.39
2018-04-28T06:51:01.976Z,15.37
2018-04-28T06:52:01.876Z,15.31
2018-04-28T06:53:01.866Z,15.36
2018-04-28T06:54:01.841Z,15.39
2018-04-28T06:55:01.580Z,15.4
2018-04-28T06:56:01.806Z,15.35
2018-04-28T06:57:01.797Z,15.36
2018-04-28T06:58:01.773Z,15.33
2018-04-28T06:59:01.511Z,15.37
2018-04-28T07:00:01.495Z,15.29
2018-04-28T07:01:01.721Z,15.28
2018-04-28T07:02:01.459Z,15.31
2018-04-28T07:03:01.689Z,15.28
2018-04-28T07:04:01.671Z,15.33
2018-04-28T07:05:01.651Z,15.29
2018-04-28T07:06:01.644Z,15.36
2018-04-28T07:07:01.368Z,15.46
2018-04-28T07:08:01.600Z,15.44
2018-04-28T07:09:01.583Z,15.61
2018-04-28T07:10:01.562Z,15.64
2018-04-28T07:11:01.301Z,15.72
2018-04-28T07:12:01.541Z,15.77
2018-04-28T07:13:01.262Z,15.84
2018-04-28T07:14:01.503Z,15.88
2018-04-28T07:15:01.491Z,16
2018-04-28T07:16:01.464Z,16.13
2018-04-28T07:17:01.447Z,16.12
2018-04-28T07:18:01.462Z,16.31
2018-04-28T07:19:01.413Z,16.29
2018-04-28T07:20:01.399Z,16.32
2018-04-28T07:21:01.464Z,16.35
2018-04-28T07:22:01.370Z,16.13
2018-04-28T07:23:01.365Z,16.24
2018-04-28T07:24:01.087Z,16.29
2018-04-28T07:25:01.073Z,16.33
2018-04-28T07:26:01.305Z,16.17
2018-04-28T07:27:00.800Z,16.12
2018-04-28T07:28:01.275Z,16.05
2018-04-28T07:29:01.267Z,15.97
2018-04-28T07:30:01.241Z,15.88
2018-04-28T07:31:01.229Z,15.79
2018-04-28T07:32:01.289Z,15.73
2018-04-28T07:33:00.949Z,15.72
2018-04-28T07:34:01.184Z,15.77
2018-04-28T07:35:01.161Z,15.88
2018-04-28T07:36:00.900Z,15.77
2018-04-28T07:37:01.230Z,15.86
2018-04-28T07:38:01.113Z,15.95
2018-04-28T07:39:01.106Z,15.95
2018-04-28T07:40:00.836Z,16.04
2018-04-28T07:41:01.068Z,15.98
2018-04-28T07:42:00.802Z,15.91
2018-04-28T07:43:01.034Z,15.92
2018-04-28T07:44:01.012Z,15.88
2018-04-28T07:45:01.072Z,15.83
2018-04-28T07:46:00.734Z,15.88
2018-04-28T07:47:00.719Z,15.84
2018-04-28T07:48:00.942Z,15.86
2018-04-28T07:49:00.928Z,15.88
2018-04-28T07:50:00.914Z,15.98
2018-04-28T07:51:00.647Z,16.05
2018-04-28T07:52:00.887Z,16.17
2018-04-28T07:53:00.873Z,16.13
2018-04-28T07:54:00.943Z,16.12
2018-04-28T07:55:00.584Z,16.15
2018-04-28T07:56:00.818Z,16.31
2018-04-28T07:57:00.797Z,16.33
2018-04-28T07:58:00.780Z,16.41
2018-04-28T07:59:00.763Z,16.35
2018-04-28T08:00:00.750Z,16.42
2018-04-28T08:01:00.739Z,16.46
2018-04-28T08:02:00.717Z,16.43
2018-04-28T08:03:00.705Z,16.46
2018-04-28T08:04:00.683Z,16.49
2018-04-28T08:05:00.668Z,16.5
2018-04-28T08:06:00.652Z,16.43
2018-04-28T08:07:00.808Z,16.43
2018-04-28T08:08:00.618Z,16.42
2018-04-28T08:09:00.614Z,16.42
2018-04-28T08:10:00.445Z,16.35
2018-04-28T08:11:00.318Z,16.39
2018-04-28T08:12:00.555Z,16.39
2018-04-28T08:13:00.727Z,16.49
2018-04-28T08:14:03.255Z,16.56
2018-04-28T08:15:00.502Z,16.6
2018-04-28T08:16:00.491Z,16.61
2018-04-28T08:17:00.224Z,16.6
2018-04-28T08:18:00.458Z,16.66
2018-04-28T08:19:00.439Z,16.61
2018-04-28T08:20:00.177Z,16.61
2018-04-28T08:21:00.411Z,16.64
2018-04-28T08:22:00.397Z,16.58
2018-04-28T08:23:00.375Z,16.65
2018-04-28T08:24:00.372Z,16.65
2018-04-28T08:25:00.095Z,16.71
2018-04-28T08:26:00.328Z,16.76
2018-04-28T08:27:00.315Z,16.83
2018-04-28T08:28:00.295Z,16.89
2018-04-28T08:29:00.285Z,16.86
2018-04-28T08:30:00.288Z,16.91
2018-04-28T08:31:00.005Z,17.04
2018-04-28T08:32:00.236Z,17.2
2018-04-28T08:33:00.225Z,17.36
2018-04-28T08:33:59.957Z,17.46
2018-04-28T08:35:00.267Z,17.52
2018-04-28T08:36:00.175Z,17.68
2018-04-28T08:37:00.384Z,17.65
2018-04-28T08:38:00.146Z,17.7
2018-04-28T08:38:59.882Z,17.65
2018-04-28T08:40:00.118Z,17.72
2018-04-28T08:40:59.851Z,17.79
2018-04-28T08:41:59.843Z,17.92
2018-04-28T08:42:59.823Z,18.07
2018-04-28T08:44:00.061Z,18.2
2018-04-28T08:45:00.047Z,18.16
2018-04-28T08:46:00.041Z,18.25
2018-04-28T08:47:00.015Z,18.18
2018-04-28T08:47:59.997Z,18.15
2018-04-28T08:48:59.742Z,18.07
2018-04-28T08:49:59.971Z,18
2018-04-28T08:51:00.039Z,18
2018-04-28T08:51:59.947Z,17.94
2018-04-28T08:52:59.935Z,17.89
2018-04-28T08:53:59.915Z,17.94
2018-04-28T08:54:59.904Z,17.9
2018-04-28T08:55:59.889Z,17.86
2018-04-28T08:56:59.885Z,17.78
2018-04-28T08:57:59.863Z,17.85
2018-04-28T08:58:59.852Z,17.7
2018-04-28T08:59:59.835Z,17.67
2018-04-28T09:00:59.820Z,17.68
2018-04-28T09:01:59.805Z,17.6
2018-04-28T09:02:59.787Z,17.54
2018-04-28T09:03:59.787Z,17.45
2018-04-28T09:04:59.764Z,17.48
2018-04-28T09:05:59.750Z,17.74
2018-04-28T09:06:59.737Z,18.22
2018-04-28T09:07:59.724Z,18.45
2018-04-28T09:08:59.707Z,18.89
2018-04-28T09:09:59.439Z,19.24
2018-04-28T09:10:59.176Z,19.26
2018-04-28T09:11:59.671Z,19.3
2018-04-28T09:12:59.702Z,19.39
2018-04-28T09:13:59.137Z,19.47
2018-04-28T09:14:59.621Z,19.34
2018-04-28T09:15:59.361Z,19.21
2018-04-28T09:16:59.593Z,19.34
2018-04-28T09:17:59.337Z,19.4
2018-04-28T09:18:59.576Z,19.44
2018-04-28T09:19:59.564Z,19.19
2018-04-28T09:20:59.322Z,19.12
2018-04-28T09:21:59.289Z,18.8
2018-04-28T09:22:59.524Z,18.45
2018-04-28T09:23:59.264Z,18.16
2018-04-28T09:24:59.501Z,17.98
2018-04-28T09:25:59.497Z,18
2018-04-28T09:26:59.230Z,17.94
2018-04-28T09:27:58.971Z,18
2018-04-28T09:28:58.960Z,17.79
2018-04-28T09:29:59.442Z,17.71
2018-04-28T09:30:59.181Z,17.71
2018-04-28T09:31:59.430Z,17.79
2018-04-28T09:32:59.241Z,17.74
2018-04-28T09:33:59.404Z,17.76
2018-04-28T09:34:59.142Z,17.78
2018-04-28T09:35:59.379Z,17.85
2018-04-28T09:36:59.369Z,17.94
2018-04-28T09:37:59.107Z,18.04
2018-04-28T09:38:59.336Z,18.15
2018-04-28T09:39:58.910Z,18.16
2018-04-28T09:40:59.147Z,18.11
2018-04-28T09:41:59.060Z,18.11
2018-04-28T09:42:59.296Z,18.19
2018-04-28T09:43:59.275Z,18.18
2018-04-28T09:44:59.273Z,18.28
2018-04-28T09:45:59.253Z,18.49
2018-04-28T09:46:59.240Z,18.65
2018-04-28T09:47:59.226Z,18.8
2018-04-28T09:48:58.972Z,18.84
2018-04-28T09:49:59.200Z,18.88
2018-04-28T09:50:59.192Z,18.81
2018-04-28T09:51:59.176Z,18.74
2018-04-28T09:52:59.163Z,18.73
2018-04-28T09:53:59.158Z,18.77
2018-04-28T09:54:58.894Z,18.88
2018-04-28T09:55:59.129Z,18.83
2018-04-28T09:56:58.881Z,18.8
2018-04-28T09:57:59.111Z,18.9
2018-04-28T09:58:59.259Z,19.02
2018-04-28T09:59:59.081Z,19.11
2018-04-28T10:00:59.090Z,18.98
2018-04-28T10:01:59.054Z,18.78
2018-04-28T10:02:58.885Z,18.74
2018-04-28T10:03:59.076Z,18.7
2018-04-28T10:04:58.647Z,18.7
2018-04-28T10:05:59.445Z,18.63
2018-04-28T10:06:59.161Z,18.58
2018-04-28T10:07:58.987Z,18.66
2018-04-28T10:08:58.762Z,18.49
2018-04-28T10:09:58.955Z,18.38
2018-04-28T10:10:58.698Z,18.47
2018-04-28T10:11:58.935Z,18.43
2018-04-28T10:12:58.927Z,18.26
2018-04-28T10:13:58.660Z,18.43
2018-04-28T10:14:58.645Z,18.37
2018-04-28T10:15:58.887Z,18.29
2018-04-28T10:16:58.660Z,18.33
2018-04-28T10:17:58.852Z,18.41
2018-04-28T10:18:58.844Z,18.5
2018-04-28T10:19:58.589Z,18.6
2018-04-28T10:20:58.830Z,18.6
2018-04-28T10:21:58.801Z,18.6
2018-04-28T10:22:58.541Z,18.56
2018-04-28T10:23:58.776Z,18.43
2018-04-28T10:24:58.758Z,18.49
2018-04-28T10:25:58.745Z,18.31
2018-04-28T10:26:58.733Z,18.23
2018-04-28T10:27:58.721Z,18.28
2018-04-28T10:28:58.456Z,18.33
2018-04-28T10:29:58.196Z,18.41
2018-04-28T10:30:58.996Z,18.34
2018-04-28T10:31:58.416Z,18.26
2018-04-28T10:32:58.647Z,18.31
2018-04-28T10:33:58.381Z,18.35
2018-04-28T10:34:58.624Z,18.41
2018-04-28T10:35:58.355Z,18.52
2018-04-28T10:36:58.590Z,18.45
2018-04-28T10:37:58.575Z,18.53
2018-04-28T10:38:58.559Z,18.65
2018-04-28T10:39:58.541Z,18.68
2018-04-28T10:40:58.038Z,18.73
2018-04-28T10:41:58.526Z,18.68
2018-04-28T10:42:58.510Z,18.74
2018-04-28T10:43:58.242Z,18.75
2018-04-28T10:44:58.471Z,18.77
2018-04-28T10:45:58.463Z,18.77
2018-04-28T10:46:58.447Z,18.68
2018-04-28T10:47:58.438Z,18.62
2018-04-28T10:48:58.417Z,18.49
2018-04-28T10:49:58.407Z,18.55
2018-04-28T10:50:58.392Z,18.45
2018-04-28T10:51:58.375Z,18.33
2018-04-28T10:52:58.362Z,18.31
2018-04-28T10:53:58.591Z,18.31
2018-04-28T10:54:57.837Z,18.29
2018-04-28T10:55:58.319Z,18.29
2018-04-28T10:56:58.344Z,18.37
2018-04-28T10:57:58.288Z,18.35
2018-04-28T10:58:58.342Z,18.31
2018-04-28T10:59:58.008Z,18.43
2018-04-28T11:00:58.006Z,18.37
2018-04-28T11:01:57.983Z,18.37
2018-04-28T11:02:57.965Z,18.33
2018-04-28T11:03:57.953Z,18.28
2018-04-28T11:04:58.190Z,18.31
2018-04-28T11:05:58.178Z,18.43
2018-04-28T11:06:58.175Z,18.33
2018-04-28T11:07:58.145Z,18.33
2018-04-28T11:08:58.219Z,18.34
2018-04-28T11:09:58.115Z,18.5
2018-04-28T11:10:58.104Z,18.47
2018-04-28T11:11:58.090Z,18.56
2018-04-28T11:12:58.084Z,18.44
2018-04-28T11:13:58.136Z,18.58
2018-04-28T11:14:58.039Z,18.59
2018-04-28T11:15:58.026Z,18.47
2018-04-28T11:16:58.021Z,18.35
2018-04-28T11:17:57.747Z,18.22
2018-04-28T11:18:57.988Z,18.16
2018-04-28T11:19:57.843Z,18.05
2018-04-28T11:20:57.957Z,17.97
2018-04-28T11:21:57.937Z,17.97
2018-04-28T11:22:57.961Z,18.07
2018-04-28T11:23:57.919Z,18.15
2018-04-28T11:24:57.901Z,18.28
2018-04-28T11:25:57.729Z,18.5
2018-04-28T11:26:57.873Z,18.59
2018-04-28T11:27:57.600Z,18.59
2018-04-28T11:28:57.837Z,18.68
2018-04-28T11:29:57.822Z,18.75
2018-04-28T11:30:57.806Z,18.77
2018-04-28T11:31:57.543Z,18.81
2018-04-28T11:32:57.941Z,18.92
2018-04-28T11:33:57.517Z,18.98
2018-04-28T11:34:57.505Z,19
2018-04-28T11:35:57.741Z,18.99
2018-04-28T11:36:57.719Z,19
2018-04-28T11:37:57.493Z,19
2018-04-28T11:38:57.693Z,19.04
2018-04-28T11:39:57.674Z,18.95
2018-04-28T11:40:57.666Z,18.89
2018-04-28T11:41:57.651Z,18.8
2018-04-28T11:42:57.642Z,18.88
2018-04-28T11:43:57.620Z,18.89
2018-04-28T11:44:57.614Z,19.02
2018-04-28T11:45:57.347Z,19.19
2018-04-28T11:46:57.580Z,19.41
2018-04-28T11:47:57.321Z,19.51
2018-04-28T11:48:57.560Z,19.67
2018-04-28T11:49:57.541Z,19.76
2018-04-28T11:50:57.522Z,19.82
2018-04-28T11:51:57.521Z,19.91
2018-04-28T11:52:57.700Z,19.91
2018-04-28T11:53:57.488Z,19.91
2018-04-28T11:54:57.474Z,19.86
2018-04-28T11:55:57.459Z,19.76
2018-04-28T11:56:58.183Z,19.66
2018-04-28T11:57:57.448Z,19.47
2018-04-28T11:58:57.308Z,19.44
2018-04-28T11:59:57.442Z,19.52
2018-04-28T12:00:57.414Z,19.64
2018-04-28T12:01:57.391Z,19.82
2018-04-28T12:02:57.133Z,20.02
2018-04-28T12:03:57.366Z,20.19
2018-04-28T12:04:57.350Z,20.31
2018-04-28T12:05:57.459Z,20.34
2018-04-28T12:06:57.326Z,20.32
2018-04-28T12:07:57.301Z,20.21
2018-04-28T12:08:57.366Z,20.07
2018-04-28T12:09:57.032Z,20.07
2018-04-28T12:10:57.017Z,19.92
2018-04-28T12:11:57.259Z,19.91
2018-04-28T12:12:57.242Z,19.91
2018-04-28T12:13:56.980Z,20
2018-04-28T12:14:57.216Z,20.03
2018-04-28T12:15:56.955Z,20.21
2018-04-28T12:16:57.200Z,20.44
2018-04-28T12:17:57.167Z,20.41
2018-04-28T12:18:57.163Z,20.32
2018-04-28T12:19:57.144Z,20.07
2018-04-28T12:20:57.221Z,20.04
2018-04-28T12:21:57.120Z,20
2018-04-28T12:22:56.857Z,20.06
2018-04-28T12:23:56.847Z,20.07
2018-04-28T12:24:57.153Z,20.02
2018-04-28T12:25:57.077Z,19.96
2018-04-28T12:26:56.807Z,20.03
2018-04-28T12:27:56.795Z,20.1
2018-04-28T12:28:56.532Z,20.22
2018-04-28T12:29:57.381Z,20.34
2018-04-28T12:30:57.007Z,20.37
2018-04-28T12:31:56.989Z,20.25
2018-04-28T12:32:56.726Z,20.18
2018-04-28T12:33:56.967Z,20.18
2018-04-28T12:34:56.701Z,19.99
2018-04-28T12:35:57.086Z,19.91
2018-04-28T12:36:56.928Z,19.79
2018-04-28T12:37:56.410Z,19.76
2018-04-28T12:38:56.897Z,19.59
2018-04-28T12:39:56.638Z,19.41
2018-04-28T12:40:56.870Z,19.41
2018-04-28T12:41:56.859Z,19.19
2018-04-28T12:42:56.596Z,19.11
2018-04-28T12:43:56.331Z,19.02
2018-04-28T12:44:56.814Z,19.09
2018-04-28T12:45:56.807Z,19.19
2018-04-28T12:46:56.793Z,19.3
2018-04-28T12:47:56.528Z,19.34
2018-04-28T12:48:56.762Z,19.27
2018-04-28T12:49:56.745Z,19.36
2018-04-28T12:50:56.864Z,19.29
2018-04-28T12:51:56.715Z,19.21
2018-04-28T12:52:56.700Z,19.24
2018-04-28T12:53:56.691Z,19.15
2018-04-28T12:54:56.428Z,19.12
2018-04-28T12:55:56.410Z,18.99